sensor_id;sensor_type;location;lat;lon;timestamp;temperature;humidity
32293;DHT22;43233;48.608;8.838;2022-10-16T00:00:00;14.80;99.90
32293;DHT22;43233;48.608;8.838;2022-10-16T00:02:26;14.70;99.90
32293;DHT22;43233;48.608;8.838;2022-10-16T00:04:51;14.70;99.90
32293;DHT22;43233;48.608;8.838;2022-10-16T00:07:17;14.70;99.90
32293;DHT22;43233;48.608;8.838;2022-10-16T00:09:42;14.60;99.90
32293;DHT22;43233;48.608;8.838;2022-10-16T00:12:08;14.60;99.90
32293;DHT22;43233;48.608;8.838;2022-10-16T00:14:34;14.60;99.90
32293;DHT22;43233;48.608;8.838;2022-10-16T00:16:59;14.60;99.90
32293;DHT22;43233;48.608;8.838;2022-10-16T00:19:25;14.50;99.90
32293;DHT22;43233;48.608;8.838;2022-10-16T00:21:50;14.50;99.90
32293;DHT22;43233;48.608;8.838;2022-10-16T00:24:16;14.60;99.90
32293;DHT22;43233;48.608;8.838;2022-10-16T00:26:41;14.50;99.90
32293;DHT22;43233;48.608;8.838;2022-10-16T00:29:08;14.50;99.90
32293;DHT22;43233;48.608;8.838;2022-10-16T00:31:34;14.50;99.90
32293;DHT22;43233;48.608;8.838;2022-10-16T00:33:59;14.50;99.90
32293;DHT22;43233;48.608;8.838;2022-10-16T00:36:26;14.40;99.90
32293;DHT22;43233;48.608;8.838;2022-10-16T00:38:54;14.40;99.90
32293;DHT22;43233;48.608;8.838;2022-10-16T00:41:21;14.40;99.90
32293;DHT22;43233;48.608;8.838;2022-10-16T00:43:54;14.40;99.90
32293;DHT22;43233;48.608;8.838;2022-10-16T00:46:35;14.30;99.90
32293;DHT22;43233;48.608;8.838;2022-10-16T00:49:16;14.30;99.90
32293;DHT22;43233;48.608;8.838;2022-10-16T00:51:48;14.20;99.90
32293;DHT22;43233;48.608;8.838;2022-10-16T00:54:21;14.30;99.90
32293;DHT22;43233;48.608;8.838;2022-10-16T00:56:48;14.20;99.90
32293;DHT22;43233;48.608;8.838;2022-10-16T00:59:29;14.20;99.90
32293;DHT22;43233;48.608;8.838;2022-10-16T01:01:56;14.10;99.90
32293;DHT22;43233;48.608;8.838;2022-10-16T01:04:23;14.10;99.90
32293;DHT22;43233;48.608;8.838;2022-10-16T01:10:03;14.10;99.90
32293;DHT22;43233;48.608;8.838;2022-10-16T01:12:38;14.10;99.90
32293;DHT22;43233;48.608;8.838;2022-10-16T01:17:57;14.10;99.90
32293;DHT22;43233;48.608;8.838;2022-10-16T01:25:57;14.00;99.90
32293;DHT22;43233;48.608;8.838;2022-10-16T01:28:36;14.00;99.90
32293;DHT22;43233;48.608;8.838;2022-10-16T01:31:04;14.00;99.90
32293;DHT22;43233;48.608;8.838;2022-10-16T01:33:43;14.00;99.90
32293;DHT22;43233;48.608;8.838;2022-10-16T01:36:13;14.00;99.90
32293;DHT22;43233;48.608;8.838;2022-10-16T01:38:40;14.00;99.90
32293;DHT22;43233;48.608;8.838;2022-10-16T01:41:23;14.00;99.90
32293;DHT22;43233;48.608;8.838;2022-10-16T01:43:58;14.00;99.90
32293;DHT22;43233;48.608;8.838;2022-10-16T01:46:27;14.00;99.90
32293;DHT22;43233;48.608;8.838;2022-10-16T01:48:54;14.10;99.90
32293;DHT22;43233;48.608;8.838;2022-10-16T01:51:20;14.10;99.90
32293;DHT22;43233;48.608;8.838;2022-10-16T01:53:52;14.10;99.90
32293;DHT22;43233;48.608;8.838;2022-10-16T01:56:20;14.10;99.90
32293;DHT22;43233;48.608;8.838;2022-10-16T01:59:12;14.10;99.90
32293;DHT22;43233;48.608;8.838;2022-10-16T02:01:40;14.10;99.90
32293;DHT22;43233;48.608;8.838;2022-10-16T02:04:20;14.20;99.90
32293;DHT22;43233;48.608;8.838;2022-10-16T02:06:47;14.20;99.90
32293;DHT22;43233;48.608;8.838;2022-10-16T02:09:13;14.20;99.90
32293;DHT22;43233;48.608;8.838;2022-10-16T02:11:41;14.30;99.90
32293;DHT22;43233;48.608;8.838;2022-10-16T02:14:07;14.30;99.90
32293;DHT22;43233;48.608;8.838;2022-10-16T02:16:36;14.30;99.90
32293;DHT22;43233;48.608;8.838;2022-10-16T02:19:03;14.30;99.90
32293;DHT22;43233;48.608;8.838;2022-10-16T02:21:43;14.30;99.90
32293;DHT22;43233;48.608;8.838;2022-10-16T02:24:18;14.30;99.90
32293;DHT22;43233;48.608;8.838;2022-10-16T02:26:53;14.30;99.90
32293;DHT22;43233;48.608;8.838;2022-10-16T02:29:24;14.30;99.90
32293;DHT22;43233;48.608;8.838;2022-10-16T02:31:54;14.30;99.90
32293;DHT22;43233;48.608;8.838;2022-10-16T02:34:21;14.30;99.90
32293;DHT22;43233;48.608;8.838;2022-10-16T02:36:48;14.30;99.90
32293;DHT22;43233;48.608;8.838;2022-10-16T02:39:16;14.30;99.90
32293;DHT22;43233;48.608;8.838;2022-10-16T02:41:42;14.30;99.90
32293;DHT22;43233;48.608;8.838;2022-10-16T02:44:08;14.30;99.90
32293;DHT22;43233;48.608;8.838;2022-10-16T02:46:33;14.40;99.90
32293;DHT22;43233;48.608;8.838;2022-10-16T02:48:59;14.40;99.90
32293;DHT22;43233;48.608;8.838;2022-10-16T02:51:24;14.40;99.90
32293;DHT22;43233;48.608;8.838;2022-10-16T02:53:50;14.50;99.90
32293;DHT22;43233;48.608;8.838;2022-10-16T02:56:16;14.40;99.90
32293;DHT22;43233;48.608;8.838;2022-10-16T02:58:41;14.50;99.90
32293;DHT22;43233;48.608;8.838;2022-10-16T03:01:07;14.60;99.90
32293;DHT22;43233;48.608;8.838;2022-10-16T03:03:33;14.60;99.90
32293;DHT22;43233;48.608;8.838;2022-10-16T03:05:58;14.70;99.90
32293;DHT22;43233;48.608;8.838;2022-10-16T03:08:24;14.70;99.90
32293;DHT22;43233;48.608;8.838;2022-10-16T03:10:51;14.70;99.90
32293;DHT22;43233;48.608;8.838;2022-10-16T03:13:17;14.70;99.90
32293;DHT22;43233;48.608;8.838;2022-10-16T03:15:43;14.90;99.90
32293;DHT22;43233;48.608;8.838;2022-10-16T03:18:09;14.90;99.90
32293;DHT22;43233;48.608;8.838;2022-10-16T03:20:34;15.00;99.90
32293;DHT22;43233;48.608;8.838;2022-10-16T03:23:00;15.00;99.90
32293;DHT22;43233;48.608;8.838;2022-10-16T03:25:27;15.10;99.90
32293;DHT22;43233;48.608;8.838;2022-10-16T03:27:53;15.10;99.90
32293;DHT22;43233;48.608;8.838;2022-10-16T03:30:19;15.10;99.90
32293;DHT22;43233;48.608;8.838;2022-10-16T03:32:44;15.00;99.90
32293;DHT22;43233;48.608;8.838;2022-10-16T03:35:12;15.00;99.90
32293;DHT22;43233;48.608;8.838;2022-10-16T03:37:38;14.90;99.90
32293;DHT22;43233;48.608;8.838;2022-10-16T03:40:04;14.90;99.90
32293;DHT22;43233;48.608;8.838;2022-10-16T03:42:30;15.00;99.90
32293;DHT22;43233;48.608;8.838;2022-10-16T03:44:56;14.90;99.90
32293;DHT22;43233;48.608;8.838;2022-10-16T03:47:21;14.90;99.90
32293;DHT22;43233;48.608;8.838;2022-10-16T03:49:49;14.90;99.90
32293;DHT22;43233;48.608;8.838;2022-10-16T03:52:14;14.80;99.90
32293;DHT22;43233;48.608;8.838;2022-10-16T03:54:40;14.80;99.90
32293;DHT22;43233;48.608;8.838;2022-10-16T03:57:06;14.80;99.90
32293;DHT22;43233;48.608;8.838;2022-10-16T03:59:31;14.80;99.90
32293;DHT22;43233;48.608;8.838;2022-10-16T04:01:57;14.90;99.90
32293;DHT22;43233;48.608;8.838;2022-10-16T04:04:22;15.00;99.90
32293;DHT22;43233;48.608;8.838;2022-10-16T04:06:48;15.10;99.90
32293;DHT22;43233;48.608;8.838;2022-10-16T04:09:13;15.10;99.90
32293;DHT22;43233;48.608;8.838;2022-10-16T04:11:39;15.10;99.90
32293;DHT22;43233;48.608;8.838;2022-10-16T04:14:05;15.10;99.90
32293;DHT22;43233;48.608;8.838;2022-10-16T04:16:30;15.10;99.90
32293;DHT22;43233;48.608;8.838;2022-10-16T04:18:56;15.10;99.90
32293;DHT22;43233;48.608;8.838;2022-10-16T04:21:22;15.10;99.90
32293;DHT22;43233;48.608;8.838;2022-10-16T04:23:48;15.20;99.90
32293;DHT22;43233;48.608;8.838;2022-10-16T04:26:14;15.20;99.90
32293;DHT22;43233;48.608;8.838;2022-10-16T04:28:40;15.20;99.90
32293;DHT22;43233;48.608;8.838;2022-10-16T04:31:06;15.20;99.90
32293;DHT22;43233;48.608;8.838;2022-10-16T04:33:32;15.30;99.90
32293;DHT22;43233;48.608;8.838;2022-10-16T04:36:00;15.20;99.90
32293;DHT22;43233;48.608;8.838;2022-10-16T04:38:26;15.30;99.90
32293;DHT22;43233;48.608;8.838;2022-10-16T04:40:52;15.20;99.90
32293;DHT22;43233;48.608;8.838;2022-10-16T04:43:18;15.20;99.90
32293;DHT22;43233;48.608;8.838;2022-10-16T04:45:46;15.20;99.90
32293;DHT22;43233;48.608;8.838;2022-10-16T04:48:12;15.20;99.90
32293;DHT22;43233;48.608;8.838;2022-10-16T04:50:37;15.20;99.90
32293;DHT22;43233;48.608;8.838;2022-10-16T04:53:03;15.20;99.90
32293;DHT22;43233;48.608;8.838;2022-10-16T04:55:28;15.20;99.90
32293;DHT22;43233;48.608;8.838;2022-10-16T04:57:54;15.20;99.90
32293;DHT22;43233;48.608;8.838;2022-10-16T05:00:20;15.20;99.90
32293;DHT22;43233;48.608;8.838;2022-10-16T05:02:46;15.30;99.90
32293;DHT22;43233;48.608;8.838;2022-10-16T05:05:11;15.20;99.90
32293;DHT22;43233;48.608;8.838;2022-10-16T05:07:37;15.20;99.90
32293;DHT22;43233;48.608;8.838;2022-10-16T05:10:03;15.10;99.90
32293;DHT22;43233;48.608;8.838;2022-10-16T05:12:29;15.10;99.90
32293;DHT22;43233;48.608;8.838;2022-10-16T05:14:54;15.00;99.90
32293;DHT22;43233;48.608;8.838;2022-10-16T05:17:24;15.00;99.90
32293;DHT22;43233;48.608;8.838;2022-10-16T05:19:50;14.90;99.90
32293;DHT22;43233;48.608;8.838;2022-10-16T05:22:16;14.90;99.90
32293;DHT22;43233;48.608;8.838;2022-10-16T05:24:42;14.80;99.90
32293;DHT22;43233;48.608;8.838;2022-10-16T05:27:07;14.80;99.90
32293;DHT22;43233;48.608;8.838;2022-10-16T05:29:33;14.70;99.90
32293;DHT22;43233;48.608;8.838;2022-10-16T05:31:58;14.70;99.90
32293;DHT22;43233;48.608;8.838;2022-10-16T05:34:24;14.70;99.90
32293;DHT22;43233;48.608;8.838;2022-10-16T05:36:50;14.70;99.90
32293;DHT22;43233;48.608;8.838;2022-10-16T05:39:16;14.60;99.90
32293;DHT22;43233;48.608;8.838;2022-10-16T05:41:42;14.60;99.90
32293;DHT22;43233;48.608;8.838;2022-10-16T05:44:07;14.60;99.90
32293;DHT22;43233;48.608;8.838;2022-10-16T05:46:33;14.60;99.90
32293;DHT22;43233;48.608;8.838;2022-10-16T05:48:59;14.50;99.90
32293;DHT22;43233;48.608;8.838;2022-10-16T05:51:24;14.50;99.90
32293;DHT22;43233;48.608;8.838;2022-10-16T05:53:51;14.50;99.90
32293;DHT22;43233;48.608;8.838;2022-10-16T05:56:17;14.50;99.90
32293;DHT22;43233;48.608;8.838;2022-10-16T05:58:43;14.50;99.90
32293;DHT22;43233;48.608;8.838;2022-10-16T06:01:10;14.50;99.90
32293;DHT22;43233;48.608;8.838;2022-10-16T06:03:36;14.40;99.90
32293;DHT22;43233;48.608;8.838;2022-10-16T06:06:13;14.40;99.90
32293;DHT22;43233;48.608;8.838;2022-10-16T06:08:40;14.40;99.90
32293;DHT22;43233;48.608;8.838;2022-10-16T06:11:08;14.40;99.90
32293;DHT22;43233;48.608;8.838;2022-10-16T06:13:34;14.30;99.90
32293;DHT22;43233;48.608;8.838;2022-10-16T06:16:00;14.30;99.90
32293;DHT22;43233;48.608;8.838;2022-10-16T06:18:27;14.30;99.90
32293;DHT22;43233;48.608;8.838;2022-10-16T06:20:54;14.30;99.90
32293;DHT22;43233;48.608;8.838;2022-10-16T06:23:20;14.30;99.90
32293;DHT22;43233;48.608;8.838;2022-10-16T06:25:45;14.30;99.90
32293;DHT22;43233;48.608;8.838;2022-10-16T06:28:12;14.30;99.90
32293;DHT22;43233;48.608;8.838;2022-10-16T06:30:38;14.30;99.90
32293;DHT22;43233;48.608;8.838;2022-10-16T06:33:03;14.30;99.90
32293;DHT22;43233;48.608;8.838;2022-10-16T06:35:29;14.30;99.90
32293;DHT22;43233;48.608;8.838;2022-10-16T06:37:57;14.40;99.90
32293;DHT22;43233;48.608;8.838;2022-10-16T06:40:22;14.40;99.90
32293;DHT22;43233;48.608;8.838;2022-10-16T06:42:48;14.40;99.90
32293;DHT22;43233;48.608;8.838;2022-10-16T06:45:14;14.50;99.90
32293;DHT22;43233;48.608;8.838;2022-10-16T06:47:39;14.50;99.90
32293;DHT22;43233;48.608;8.838;2022-10-16T06:50:05;14.50;99.90
32293;DHT22;43233;48.608;8.838;2022-10-16T06:52:33;14.60;99.90
32293;DHT22;43233;48.608;8.838;2022-10-16T06:54:59;14.60;99.90
32293;DHT22;43233;48.608;8.838;2022-10-16T06:57:24;14.60;99.90
32293;DHT22;43233;48.608;8.838;2022-10-16T06:59:50;14.70;99.90
32293;DHT22;43233;48.608;8.838;2022-10-16T07:02:15;14.70;99.90
32293;DHT22;43233;48.608;8.838;2022-10-16T07:04:41;14.80;99.90
32293;DHT22;43233;48.608;8.838;2022-10-16T07:07:06;14.80;99.90
32293;DHT22;43233;48.608;8.838;2022-10-16T07:09:32;14.80;99.90
32293;DHT22;43233;48.608;8.838;2022-10-16T07:11:57;14.90;99.90
32293;DHT22;43233;48.608;8.838;2022-10-16T07:14:23;14.90;99.90
32293;DHT22;43233;48.608;8.838;2022-10-16T07:16:49;14.90;99.90
32293;DHT22;43233;48.608;8.838;2022-10-16T07:19:14;14.90;99.90
32293;DHT22;43233;48.608;8.838;2022-10-16T07:21:42;14.90;99.90
32293;DHT22;43233;48.608;8.838;2022-10-16T07:24:13;14.90;99.90
32293;DHT22;43233;48.608;8.838;2022-10-16T07:26:40;15.00;99.90
32293;DHT22;43233;48.608;8.838;2022-10-16T07:29:17;15.00;99.90
32293;DHT22;43233;48.608;8.838;2022-10-16T07:31:44;15.00;99.90
32293;DHT22;43233;48.608;8.838;2022-10-16T07:34:12;15.10;99.90
32293;DHT22;43233;48.608;8.838;2022-10-16T07:36:37;15.10;99.90
32293;DHT22;43233;48.608;8.838;2022-10-16T07:39:03;15.10;99.90
32293;DHT22;43233;48.608;8.838;2022-10-16T07:41:29;15.20;99.90
32293;DHT22;43233;48.608;8.838;2022-10-16T07:43:56;15.20;99.90
32293;DHT22;43233;48.608;8.838;2022-10-16T07:46:25;15.20;99.90
32293;DHT22;43233;48.608;8.838;2022-10-16T07:48:51;15.20;99.90
32293;DHT22;43233;48.608;8.838;2022-10-16T07:51:22;15.20;99.90
32293;DHT22;43233;48.608;8.838;2022-10-16T07:53:48;15.30;99.90
32293;DHT22;43233;48.608;8.838;2022-10-16T07:56:14;15.30;99.90
32293;DHT22;43233;48.608;8.838;2022-10-16T07:58:40;15.30;99.90
32293;DHT22;43233;48.608;8.838;2022-10-16T08:01:08;15.40;99.90
32293;DHT22;43233;48.608;8.838;2022-10-16T08:03:34;15.40;99.90
32293;DHT22;43233;48.608;8.838;2022-10-16T08:06:01;15.50;99.90
32293;DHT22;43233;48.608;8.838;2022-10-16T08:08:27;15.50;99.90
32293;DHT22;43233;48.608;8.838;2022-10-16T08:10:53;15.50;99.90
32293;DHT22;43233;48.608;8.838;2022-10-16T08:13:19;15.60;99.90
32293;DHT22;43233;48.608;8.838;2022-10-16T08:15:45;15.60;99.90
32293;DHT22;43233;48.608;8.838;2022-10-16T08:18:12;15.70;99.90
32293;DHT22;43233;48.608;8.838;2022-10-16T08:20:38;15.70;99.90
32293;DHT22;43233;48.608;8.838;2022-10-16T08:23:04;15.70;99.90
32293;DHT22;43233;48.608;8.838;2022-10-16T08:25:30;15.80;99.90
32293;DHT22;43233;48.608;8.838;2022-10-16T08:27:56;15.80;99.90
32293;DHT22;43233;48.608;8.838;2022-10-16T08:30:23;15.80;99.90
32293;DHT22;43233;48.608;8.838;2022-10-16T08:32:49;15.80;99.90
32293;DHT22;43233;48.608;8.838;2022-10-16T08:35:15;15.90;99.90
32293;DHT22;43233;48.608;8.838;2022-10-16T08:37:41;15.90;99.90
32293;DHT22;43233;48.608;8.838;2022-10-16T08:40:28;15.90;99.90
32293;DHT22;43233;48.608;8.838;2022-10-16T08:48:53;16.00;99.90
32293;DHT22;43233;48.608;8.838;2022-10-16T08:51:21;16.00;99.90
32293;DHT22;43233;48.608;8.838;2022-10-16T08:56:36;16.20;99.90
32293;DHT22;43233;48.608;8.838;2022-10-16T08:59:01;16.30;99.90
32293;DHT22;43233;48.608;8.838;2022-10-16T09:01:44;16.30;99.90
32293;DHT22;43233;48.608;8.838;2022-10-16T09:05:15;16.30;99.90
32293;DHT22;43233;48.608;8.838;2022-10-16T09:10:03;16.50;99.90
32293;DHT22;43233;48.608;8.838;2022-10-16T09:12:41;16.60;99.90
32293;DHT22;43233;48.608;8.838;2022-10-16T09:18:29;16.90;99.90
32293;DHT22;43233;48.608;8.838;2022-10-16T09:21:21;17.10;99.90
32293;DHT22;43233;48.608;8.838;2022-10-16T09:23:49;17.20;99.90
32293;DHT22;43233;48.608;8.838;2022-10-16T09:26:16;17.40;99.90
32293;DHT22;43233;48.608;8.838;2022-10-16T09:28:43;17.60;99.90
32293;DHT22;43233;48.608;8.838;2022-10-16T09:31:16;17.70;99.90
32293;DHT22;43233;48.608;8.838;2022-10-16T09:33:44;17.80;99.90
32293;DHT22;43233;48.608;8.838;2022-10-16T09:36:11;17.80;99.40
32293;DHT22;43233;48.608;8.838;2022-10-16T09:38:38;17.90;98.40
32293;DHT22;43233;48.608;8.838;2022-10-16T09:43:41;18.00;96.00
32293;DHT22;43233;48.608;8.838;2022-10-16T09:46:19;18.10;94.70
32293;DHT22;43233;48.608;8.838;2022-10-16T09:48:50;18.10;94.30
32293;DHT22;43233;48.608;8.838;2022-10-16T09:51:30;18.20;95.80
32293;DHT22;43233;48.608;8.838;2022-10-16T09:54:02;18.30;93.20
32293;DHT22;43233;48.608;8.838;2022-10-16T09:56:30;18.30;94.70
32293;DHT22;43233;48.608;8.838;2022-10-16T09:59:00;18.40;95.60
32293;DHT22;43233;48.608;8.838;2022-10-16T10:01:40;18.50;95.20
32293;DHT22;43233;48.608;8.838;2022-10-16T10:04:07;18.60;94.20
32293;DHT22;43233;48.608;8.838;2022-10-16T10:06:52;18.80;90.10
32293;DHT22;43233;48.608;8.838;2022-10-16T10:09:27;19.10;90.60
32293;DHT22;43233;48.608;8.838;2022-10-16T10:11:58;19.30;88.90
32293;DHT22;43233;48.608;8.838;2022-10-16T10:17:22;19.60;86.80
32293;DHT22;43233;48.608;8.838;2022-10-16T10:20:18;19.60;82.60
32293;DHT22;43233;48.608;8.838;2022-10-16T10:22:42;19.60;85.00
32293;DHT22;43233;48.608;8.838;2022-10-16T10:30:34;20.00;84.20
32293;DHT22;43233;48.608;8.838;2022-10-16T10:36:00;20.40;81.40
32293;DHT22;43233;48.608;8.838;2022-10-16T10:38:53;20.50;82.30
32293;DHT22;43233;48.608;8.838;2022-10-16T10:41:56;20.80;79.50
32293;DHT22;43233;48.608;8.838;2022-10-16T10:47:26;20.80;80.60
32293;DHT22;43233;48.608;8.838;2022-10-16T10:50:14;20.60;80.50
32293;DHT22;43233;48.608;8.838;2022-10-16T11:04:19;20.70;80.50
32293;DHT22;43233;48.608;8.838;2022-10-16T11:07:03;20.60;82.10
32293;DHT22;43233;48.608;8.838;2022-10-16T11:09:24;20.80;81.40
32293;DHT22;43233;48.608;8.838;2022-10-16T11:11:56;20.90;78.90
32293;DHT22;43233;48.608;8.838;2022-10-16T11:14:35;20.90;80.60
32293;DHT22;43233;48.608;8.838;2022-10-16T11:17:13;21.00;81.70
32293;DHT22;43233;48.608;8.838;2022-10-16T11:22:37;21.20;70.10
32293;DHT22;43233;48.608;8.838;2022-10-16T11:27:51;21.50;68.30
32293;DHT22;43233;48.608;8.838;2022-10-16T11:30:23;21.80;69.30
32293;DHT22;43233;48.608;8.838;2022-10-16T11:40:54;22.20;66.60
32293;DHT22;43233;48.608;8.838;2022-10-16T11:43:28;22.20;62.40
32293;DHT22;43233;48.608;8.838;2022-10-16T11:45:59;22.30;62.70
32293;DHT22;43233;48.608;8.838;2022-10-16T11:48:39;22.50;61.60
32293;DHT22;43233;48.608;8.838;2022-10-16T11:51:14;22.70;52.90
32293;DHT22;43233;48.608;8.838;2022-10-16T11:54:37;22.70;52.90
32293;DHT22;43233;48.608;8.838;2022-10-16T11:56:57;23.00;52.80
32293;DHT22;43233;48.608;8.838;2022-10-16T11:59:41;23.10;51.20
32293;DHT22;43233;48.608;8.838;2022-10-16T12:07:37;22.50;52.60
32293;DHT22;43233;48.608;8.838;2022-10-16T12:10:23;22.60;52.30
32293;DHT22;43233;48.608;8.838;2022-10-16T12:12:49;22.40;51.20
32293;DHT22;43233;48.608;8.838;2022-10-16T12:15:26;22.30;53.30
32293;DHT22;43233;48.608;8.838;2022-10-16T12:17:53;22.20;52.00
32293;DHT22;43233;48.608;8.838;2022-10-16T12:20:22;22.20;54.80
32293;DHT22;43233;48.608;8.838;2022-10-16T12:23:01;22.20;53.50
32293;DHT22;43233;48.608;8.838;2022-10-16T12:25:33;22.30;55.00
32293;DHT22;43233;48.608;8.838;2022-10-16T12:28:01;22.50;53.50
32293;DHT22;43233;48.608;8.838;2022-10-16T12:30:29;22.80;53.20
32293;DHT22;43233;48.608;8.838;2022-10-16T12:32:57;23.20;53.40
32293;DHT22;43233;48.608;8.838;2022-10-16T12:35:27;23.70;51.00
32293;DHT22;43233;48.608;8.838;2022-10-16T12:37:54;24.10;51.00
32293;DHT22;43233;48.608;8.838;2022-10-16T12:40:32;24.60;47.00
32293;DHT22;43233;48.608;8.838;2022-10-16T12:42:58;25.00;45.70
32293;DHT22;43233;48.608;8.838;2022-10-16T12:45:32;25.20;46.60
32293;DHT22;43233;48.608;8.838;2022-10-16T12:48:00;25.50;43.90
32293;DHT22;43233;48.608;8.838;2022-10-16T12:52:59;25.60;44.20
32293;DHT22;43233;48.608;8.838;2022-10-16T12:55:27;26.00;42.60
32293;DHT22;43233;48.608;8.838;2022-10-16T13:00:44;26.10;42.90
32293;DHT22;43233;48.608;8.838;2022-10-16T13:03:46;26.00;42.30
32293;DHT22;43233;48.608;8.838;2022-10-16T13:25:26;26.30;45.30
32293;DHT22;43233;48.608;8.838;2022-10-16T13:28:02;26.40;44.00
32293;DHT22;43233;48.608;8.838;2022-10-16T13:30:30;25.90;44.20
32293;DHT22;43233;48.608;8.838;2022-10-16T13:35:55;25.70;47.10
32293;DHT22;43233;48.608;8.838;2022-10-16T13:38:27;25.80;47.30
32293;DHT22;43233;48.608;8.838;2022-10-16T13:41:13;25.40;45.80
32293;DHT22;43233;48.608;8.838;2022-10-16T13:43:44;24.90;47.70
32293;DHT22;43233;48.608;8.838;2022-10-16T13:46:14;24.40;48.80
32293;DHT22;43233;48.608;8.838;2022-10-16T13:48:41;24.30;50.70
32293;DHT22;43233;48.608;8.838;2022-10-16T13:51:17;24.30;48.70
32293;DHT22;43233;48.608;8.838;2022-10-16T13:53:44;24.10;49.60
32293;DHT22;43233;48.608;8.838;2022-10-16T13:56:12;23.80;50.70
32293;DHT22;43233;48.608;8.838;2022-10-16T13:58:38;23.60;51.50
32293;DHT22;43233;48.608;8.838;2022-10-16T14:01:14;23.50;52.10
32293;DHT22;43233;48.608;8.838;2022-10-16T14:03:41;23.30;53.40
32293;DHT22;43233;48.608;8.838;2022-10-16T14:06:15;23.20;55.00
32293;DHT22;43233;48.608;8.838;2022-10-16T14:08:45;23.30;55.30
32293;DHT22;43233;48.608;8.838;2022-10-16T14:11:11;23.40;56.40
32293;DHT22;43233;48.608;8.838;2022-10-16T14:13:45;23.50;55.80
32293;DHT22;43233;48.608;8.838;2022-10-16T14:16:17;23.60;53.80
32293;DHT22;43233;48.608;8.838;2022-10-16T14:18:49;23.60;53.70
32293;DHT22;43233;48.608;8.838;2022-10-16T14:21:16;23.70;52.60
32293;DHT22;43233;48.608;8.838;2022-10-16T14:23:43;23.80;51.30
32293;DHT22;43233;48.608;8.838;2022-10-16T14:28:37;23.80;52.80
32293;DHT22;43233;48.608;8.838;2022-10-16T14:31:31;24.00;53.10
32293;DHT22;43233;48.608;8.838;2022-10-16T14:33:57;24.30;53.30
32293;DHT22;43233;48.608;8.838;2022-10-16T14:36:24;24.50;52.80
32293;DHT22;43233;48.608;8.838;2022-10-16T14:39:02;24.70;52.40
32293;DHT22;43233;48.608;8.838;2022-10-16T14:41:32;24.90;51.20
32293;DHT22;43233;48.608;8.838;2022-10-16T14:44:03;25.00;50.40
32293;DHT22;43233;48.608;8.838;2022-10-16T14:46:36;25.10;49.80
32293;DHT22;43233;48.608;8.838;2022-10-16T14:51:34;25.30;49.50
32293;DHT22;43233;48.608;8.838;2022-10-16T14:54:00;25.30;49.30
32293;DHT22;43233;48.608;8.838;2022-10-16T14:56:42;25.40;49.30
32293;DHT22;43233;48.608;8.838;2022-10-16T14:59:18;25.40;50.00
32293;DHT22;43233;48.608;8.838;2022-10-16T15:01:45;25.50;49.10
32293;DHT22;43233;48.608;8.838;2022-10-16T15:04:12;25.50;48.70
32293;DHT22;43233;48.608;8.838;2022-10-16T15:06:38;25.60;48.00
32293;DHT22;43233;48.608;8.838;2022-10-16T15:09:04;25.60;48.60
32293;DHT22;43233;48.608;8.838;2022-10-16T15:11:31;25.60;48.30
32293;DHT22;43233;48.608;8.838;2022-10-16T15:13:57;25.50;49.10
32293;DHT22;43233;48.608;8.838;2022-10-16T15:16:23;25.50;49.50
32293;DHT22;43233;48.608;8.838;2022-10-16T15:18:48;25.60;48.10
32293;DHT22;43233;48.608;8.838;2022-10-16T15:21:29;25.70;48.20
32293;DHT22;43233;48.608;8.838;2022-10-16T15:23:55;25.80;48.60
32293;DHT22;43233;48.608;8.838;2022-10-16T15:26:23;25.80;48.90
32293;DHT22;43233;48.608;8.838;2022-10-16T15:28:49;25.70;49.00
32293;DHT22;43233;48.608;8.838;2022-10-16T15:31:14;25.60;49.80
32293;DHT22;43233;48.608;8.838;2022-10-16T15:33:40;25.60;49.30
32293;DHT22;43233;48.608;8.838;2022-10-16T15:36:06;25.50;50.00
32293;DHT22;43233;48.608;8.838;2022-10-16T15:38:32;25.40;51.50
32293;DHT22;43233;48.608;8.838;2022-10-16T15:40:57;25.20;52.80
32293;DHT22;43233;48.608;8.838;2022-10-16T15:43:23;25.10;53.60
32293;DHT22;43233;48.608;8.838;2022-10-16T15:46:11;24.80;55.70
32293;DHT22;43233;48.608;8.838;2022-10-16T15:48:37;24.60;58.20
32293;DHT22;43233;48.608;8.838;2022-10-16T15:51:06;24.50;58.50
32293;DHT22;43233;48.608;8.838;2022-10-16T15:53:32;24.30;58.80
32293;DHT22;43233;48.608;8.838;2022-10-16T15:56:02;24.10;60.50
32293;DHT22;43233;48.608;8.838;2022-10-16T15:58:28;24.00;62.30
32293;DHT22;43233;48.608;8.838;2022-10-16T16:00:57;23.90;57.00
32293;DHT22;43233;48.608;8.838;2022-10-16T16:03:23;23.80;59.30
32293;DHT22;43233;48.608;8.838;2022-10-16T16:05:49;23.70;62.80
32293;DHT22;43233;48.608;8.838;2022-10-16T16:08:15;23.50;66.60
32293;DHT22;43233;48.608;8.838;2022-10-16T16:10:42;23.20;64.60
32293;DHT22;43233;48.608;8.838;2022-10-16T16:13:07;23.10;64.90
32293;DHT22;43233;48.608;8.838;2022-10-16T16:15:33;23.00;64.40
32293;DHT22;43233;48.608;8.838;2022-10-16T16:17:58;22.80;64.30
32293;DHT22;43233;48.608;8.838;2022-10-16T16:20:25;22.70;64.70
32293;DHT22;43233;48.608;8.838;2022-10-16T16:22:51;22.60;64.40
32293;DHT22;43233;48.608;8.838;2022-10-16T16:25:17;22.60;64.20
32293;DHT22;43233;48.608;8.838;2022-10-16T16:27:42;22.40;65.30
32293;DHT22;43233;48.608;8.838;2022-10-16T16:30:10;22.10;66.10
32293;DHT22;43233;48.608;8.838;2022-10-16T16:32:36;21.80;68.20
32293;DHT22;43233;48.608;8.838;2022-10-16T16:35:03;21.60;70.30
32293;DHT22;43233;48.608;8.838;2022-10-16T16:37:29;21.30;70.70
32293;DHT22;43233;48.608;8.838;2022-10-16T16:39:55;21.10;71.20
32293;DHT22;43233;48.608;8.838;2022-10-16T16:42:26;20.90;71.00
32293;DHT22;43233;48.608;8.838;2022-10-16T16:44:52;20.90;70.80
32293;DHT22;43233;48.608;8.838;2022-10-16T16:47:18;20.90;70.40
32293;DHT22;43233;48.608;8.838;2022-10-16T16:49:44;20.90;71.10
32293;DHT22;43233;48.608;8.838;2022-10-16T16:52:11;20.70;71.20
32293;DHT22;43233;48.608;8.838;2022-10-16T16:54:37;20.50;71.40
32293;DHT22;43233;48.608;8.838;2022-10-16T16:57:02;20.40;72.20
32293;DHT22;43233;48.608;8.838;2022-10-16T16:59:29;20.40;71.70
32293;DHT22;43233;48.608;8.838;2022-10-16T17:02:01;20.30;71.80
32293;DHT22;43233;48.608;8.838;2022-10-16T17:04:26;20.20;71.40
32293;DHT22;43233;48.608;8.838;2022-10-16T17:06:53;20.20;70.80
32293;DHT22;43233;48.608;8.838;2022-10-16T17:09:19;20.20;71.30
32293;DHT22;43233;48.608;8.838;2022-10-16T17:11:45;20.20;71.30
32293;DHT22;43233;48.608;8.838;2022-10-16T17:14:12;20.20;70.90
32293;DHT22;43233;48.608;8.838;2022-10-16T17:16:39;20.20;71.60
32293;DHT22;43233;48.608;8.838;2022-10-16T17:19:14;20.10;71.50
32293;DHT22;43233;48.608;8.838;2022-10-16T17:21:41;20.10;71.40
32293;DHT22;43233;48.608;8.838;2022-10-16T17:24:06;20.00;71.70
32293;DHT22;43233;48.608;8.838;2022-10-16T17:26:33;19.90;71.40